This demonstration page uses our WeatherBlox Daily Observations layout. Learn more.

41.86663, -103.66717

Hourly Observations for May 13, 2019

Temp ( °F °C ) Dew Point ( °F °C ) Humidity (%) Winds ( mph kmh ) Pressure ( in mb ) Visibility ( mi km ) Precip ( " mm )
12:53 am 00:53 Clear 45 7.2 33 0.6 63 63 ENE 3 6 29.8 1009 10 16.09344 0 0
1:53 am 01:53 Clear 43 6.1 33 0.6 68 68 ENE 3 6 29.8 1009 10 16.09344 0 0
2:53 am 02:53 Clear 40 4.4 34 1.1 79 79 N 3 6 29.8 1009 10 16.09344 0 0
3:53 am 03:53 Clear 39 3.9 33 0.6 79 79 NNW 7 11 29.8 1009 10 16.09344 0 0
4:53 am 04:53 Clear 39 3.9 33 0.6 79 79 N 5 7 29.8 1009 10 16.09344 0 0
5:53 am 05:53 Sunny 39 3.9 33 0.6 79 79 N 5 7 29.83 1010 10 16.09344 0 0
6:53 am 06:53 Sunny 43 6.1 37 2.8 80 80 Calm 29.83 1010 10 16.09344 0 0
7:53 am 07:53 Sunny 53 11.7 41 5 64 64 Calm 29.83 1010 10 16.09344 0 0
8:53 am 08:53 Sunny 60 15.6 41 5 50 50 WNW 8 13 29.83 1010 10 16.09344 0 0
9:53 am 09:53 Sunny 67 19.4 44 6.7 44 44 WNW 8 13 29.8 1009 10 16.09344 0 0
10:53 am 10:53 Sunny 71 21.7 44 6.7 38 38 WNW 6 9 29.8 1009 10 16.09344 0 0
11:53 am 11:53 Sunny 76 24.4 47 8.3 36 36 VRB 3 6 29.77 1008 10 16.09344 0 0
12:53 pm 12:53 Sunny 78 25.6 44 6.7 30 30 Calm 29.77 1008 10 16.09344 0 0
1:53 pm 13:53 Sunny 81 27.2 46 7.8 29 29 WNW 5 7 29.74 1007 10 16.09344 0 0
2:53 pm 14:53 Sunny 82 27.8 45 7.2 27 27 WNW 10 17 29.74 1007 10 16.09344 0 0
3:53 pm 15:53 Partly Cloudy 76 24.4 41 5 29 29 WNW 15 24 29.77 1008 10 16.09344 0 0
4:06 pm 16:06 Mostly Cloudy 72 22 43 6 36 36 NNE 29 46 29.65 1004 10 16.09344 0 0
4:53 pm 16:53 Sunny 75 23.9 44 6.7 33 33 Calm 29.77 1008 10 16.09344 0 0
5:53 pm 17:53 Sunny 76 24.4 44 6.7 32 32 WSW 5 7 29.74 1007 10 16.09344 0 0
6:53 pm 18:53 Mostly Sunny 74 23.3 46 7.8 37 37 Calm 29.77 1008 10 16.09344 0 0
7:31 pm 19:31 Partly Cloudy 69 20.6 43 6.1 39 39 NE 16 26 29.68 1005 10 16.09344 0.001 0.001
7:53 pm 19:53 Sunny 65 18.3 44 6.7 47 47 ENE 6 9 29.77 1008 10 16.09344 0.001 0.001
8:53 pm 20:53 Clear 61 16.1 44 6.7 54 54 SW 7 11 29.77 1008 10 16.09344 0 0
9:53 pm 21:53 Clear 59 15 43 6.1 56 56 Calm 29.8 1009 10 16.09344 0 0
10:53 pm 22:53 Clear 53 11.7 46 7.8 77 77 NNE 10 17 29.8 1009 10 16.09344 0 0
11:53 pm 23:53 Clear 51 10.6 43 6.1 74 74 Calm 29.8 1009 10 16.09344 0 0

Powered by AerisWeather